Terminal Aerodrome Forecast
Issued by NWS Sterling, VA

Home | Current Version | Previous Version | Text Only | Print | Product List | Glossary On
Versions: 1 2 3 4 5 6 7 8 9 10 11 12 13 14 15 16 17 18 19 20 21 22 23 24 25 26 27 28
000
FTUS41 KLWX 261200 AAA
TAFIAD
TAF AMD
KIAD 261258Z 2613/2718 09010G19KT 1SM -SN BR OVC007
     FM261500 06012G22KT 2SM -SN OVC006
     FM261800 03008KT 1SM -SN OVC008
     FM270800 33010G20KT 6SM -SN OVC008
     FM271100 33010G20KT P6SM OVC008
     FM271200 33010KT P6SM OVC015=

USA.gov is the U.S. government's official web portal to all federal, state and local government web resources and services.